createdAt,value
2019-02-10T00:01:50.109Z,7.80
2019-02-10T00:04:19.113Z,7.80
2019-02-10T00:06:48.066Z,7.80
2019-02-10T00:09:17.013Z,7.90
2019-02-10T00:11:46.162Z,7.80
2019-02-10T00:14:15.341Z,7.70
2019-02-10T00:16:44.216Z,7.70
2019-02-10T00:19:13.140Z,7.70
2019-02-10T00:21:42.130Z,7.60
2019-02-10T00:24:11.206Z,7.70
2019-02-10T00:26:40.126Z,7.70
2019-02-10T00:29:09.140Z,7.70
2019-02-10T00:31:38.076Z,7.70
2019-02-10T00:34:07.168Z,7.80
2019-02-10T00:36:36.474Z,7.70
2019-02-10T00:39:09.315Z,7.80
2019-02-10T00:41:38.561Z,7.60
2019-02-10T00:44:07.605Z,7.60
2019-02-10T00:46:36.546Z,7.60
2019-02-10T00:49:05.473Z,7.60
2019-02-10T00:51:34.333Z,7.70
2019-02-10T00:54:03.601Z,7.70
2019-02-10T00:56:33.274Z,7.60
2019-02-10T00:59:02.165Z,7.60
2019-02-10T01:01:31.475Z,7.60
2019-02-10T01:04:00.665Z,7.60
2019-02-10T01:06:29.582Z,7.60
2019-02-10T01:08:59.088Z,7.60
2019-02-10T01:11:28.202Z,7.50
2019-02-10T01:13:57.325Z,7.50
2019-02-10T01:16:26.245Z,7.40
2019-02-10T01:19:07.137Z,7.40
2019-02-10T01:21:36.309Z,7.40
2019-02-10T01:24:05.356Z,7.40
2019-02-10T01:26:34.262Z,7.30
2019-02-10T01:29:03.116Z,7.30
2019-02-10T01:31:32.068Z,7.20
2019-02-10T01:34:01.025Z,7.20
2019-02-10T01:36:30.051Z,7.10
2019-02-10T01:38:59.590Z,7.10
2019-02-10T01:41:28.540Z,7.00
2019-02-10T01:43:57.392Z,7.00
2019-02-10T01:46:26.306Z,6.90
2019-02-10T01:48:55.269Z,6.80
2019-02-10T01:51:24.281Z,6.80
2019-02-10T01:53:53.117Z,6.80
2019-02-10T01:56:22.352Z,6.80
2019-02-10T01:58:51.202Z,6.80
2019-02-10T02:01:20.371Z,6.80
2019-02-10T02:03:49.200Z,6.80
2019-02-10T02:06:18.393Z,6.70
2019-02-10T02:08:47.310Z,6.70
2019-02-10T02:11:16.290Z,6.70
2019-02-10T02:13:45.244Z,6.70
2019-02-10T02:16:14.301Z,6.70
2019-02-10T02:18:43.235Z,6.60
2019-02-10T02:21:12.190Z,6.60
2019-02-10T02:23:41.139Z,6.60
2019-02-10T02:26:10.172Z,6.50
2019-02-10T02:28:39.195Z,6.50
2019-02-10T02:31:08.266Z,6.50
2019-02-10T02:33:37.288Z,6.60
2019-02-10T02:36:06.332Z,6.50
2019-02-10T02:38:35.370Z,6.50
2019-02-10T02:41:04.348Z,6.50
2019-02-10T02:43:33.579Z,6.50
2019-02-10T02:46:02.519Z,6.50
2019-02-10T02:48:31.689Z,6.50
2019-02-10T02:51:01.064Z,6.30
2019-02-10T02:53:30.195Z,6.40
2019-02-10T02:55:59.084Z,6.40
2019-02-10T02:58:28.170Z,6.40
2019-02-10T03:00:57.080Z,6.50
2019-02-10T03:03:25.986Z,6.50
2019-02-10T03:05:54.915Z,6.50
2019-02-10T03:08:23.829Z,6.50
2019-02-10T03:10:52.977Z,6.50
2019-02-10T03:13:21.863Z,6.40
2019-02-10T03:15:50.818Z,6.40
2019-02-10T03:18:20.015Z,6.40
2019-02-10T03:20:48.895Z,6.40
2019-02-10T03:23:17.829Z,6.40
2019-02-10T03:25:46.751Z,6.40
2019-02-10T03:28:15.624Z,6.30
2019-02-10T03:30:44.480Z,6.40
2019-02-10T03:33:13.697Z,6.40
2019-02-10T03:35:42.594Z,6.40
2019-02-10T03:38:11.530Z,6.40
2019-02-10T03:40:40.636Z,6.40
2019-02-10T03:43:09.512Z,6.40
2019-02-10T03:45:38.423Z,6.40
2019-02-10T03:48:07.345Z,6.40
2019-02-10T03:50:36.185Z,6.40
2019-02-10T03:53:05.394Z,6.40
2019-02-10T03:55:34.358Z,6.40
2019-02-10T03:58:03.272Z,6.40
2019-02-10T04:00:32.455Z,6.40
2019-02-10T04:03:01.314Z,6.30
2019-02-10T04:05:30.445Z,6.40
2019-02-10T04:07:59.366Z,6.40
2019-02-10T04:10:28.634Z,6.40
2019-02-10T04:12:57.516Z,6.30
2019-02-10T04:15:26.422Z,6.30
2019-02-10T04:17:55.644Z,6.40
2019-02-10T04:20:24.490Z,6.30
2019-02-10T04:22:53.414Z,6.30
2019-02-10T04:25:22.257Z,6.40
2019-02-10T04:27:51.115Z,6.50
2019-02-10T04:30:19.953Z,6.40
2019-02-10T04:32:48.878Z,6.50
2019-02-10T04:35:17.786Z,6.40
2019-02-10T04:37:47.080Z,6.40
2019-02-10T04:40:16.759Z,6.40
2019-02-10T04:42:45.613Z,6.30
2019-02-10T04:45:14.459Z,6.40
2019-02-10T04:47:43.310Z,6.30
2019-02-10T04:50:12.290Z,6.30
2019-02-10T04:52:41.217Z,6.30
2019-02-10T04:55:10.203Z,6.40
2019-02-10T04:57:39.435Z,6.30
2019-02-10T05:00:08.865Z,6.30
2019-02-10T05:02:38.105Z,6.20
2019-02-10T05:05:07.162Z,6.30
2019-02-10T05:07:36.048Z,6.30
2019-02-10T05:10:05.410Z,6.30
2019-02-10T05:12:34.493Z,6.20
2019-02-10T05:15:03.435Z,6.20
2019-02-10T05:17:32.395Z,6.20
2019-02-10T05:20:01.446Z,6.20
2019-02-10T05:22:30.543Z,6.20
2019-02-10T05:24:59.412Z,6.20
2019-02-10T05:27:28.310Z,6.20
2019-02-10T05:29:57.240Z,6.20
2019-02-10T05:32:26.162Z,6.20
2019-02-10T05:34:55.120Z,6.30
2019-02-10T05:37:24.078Z,6.20
2019-02-10T05:39:52.960Z,6.20
2019-02-10T05:42:21.848Z,6.30
2019-02-10T05:44:50.945Z,6.20
2019-02-10T05:47:19.820Z,6.20
2019-02-10T05:49:48.769Z,6.20
2019-02-10T05:52:17.614Z,6.20
2019-02-10T05:54:46.453Z,6.30
2019-02-10T05:57:15.586Z,6.30
2019-02-10T05:59:44.480Z,6.30
2019-02-10T06:02:29.516Z,6.30
2019-02-10T06:05:01.500Z,6.30
2019-02-10T06:07:30.621Z,6.20
2019-02-10T06:09:59.458Z,6.20
2019-02-10T06:12:28.330Z,6.10
2019-02-10T06:14:57.473Z,6.00
2019-02-10T06:17:26.420Z,5.90
2019-02-10T06:19:55.266Z,5.80
2019-02-10T06:22:24.534Z,5.70
2019-02-10T06:24:53.427Z,5.70
2019-02-10T06:27:22.584Z,5.70
2019-02-10T06:29:51.757Z,5.70
2019-02-10T06:32:20.669Z,5.60
2019-02-10T06:34:49.564Z,5.60
2019-02-10T06:37:18.447Z,5.50
2019-02-10T06:39:47.412Z,5.50
2019-02-10T06:42:17.995Z,5.50
2019-02-10T06:44:47.016Z,5.60
2019-02-10T06:47:16.130Z,5.60
2019-02-10T06:49:45.265Z,5.70
2019-02-10T06:52:14.723Z,5.70
2019-02-10T06:54:45.881Z,5.80
2019-02-10T06:57:15.091Z,5.80
2019-02-10T07:00:01.302Z,5.80
2019-02-10T07:02:38.590Z,5.80
2019-02-10T07:05:09.344Z,6.00
2019-02-10T07:07:38.254Z,6.00
2019-02-10T07:10:07.422Z,6.00
2019-02-10T07:12:50.557Z,6.20
2019-02-10T07:15:55.962Z,6.20
2019-02-10T07:19:01.059Z,6.30
2019-02-10T07:21:36.761Z,6.40
2019-02-10T07:24:42.559Z,6.50
2019-02-10T07:27:23.633Z,6.60
2019-02-10T07:30:32.777Z,6.70
2019-02-10T07:33:04.101Z,6.80
2019-02-10T07:36:05.441Z,6.90
2019-02-10T07:39:15.979Z,6.90
2019-02-10T07:42:32.395Z,6.90
2019-02-10T07:45:38.459Z,7.00
2019-02-10T07:48:35.827Z,7.10
2019-02-10T07:51:46.868Z,7.20
2019-02-10T07:54:42.366Z,7.30
2019-02-10T07:57:47.878Z,7.50
2019-02-10T08:00:51.019Z,7.70
2019-02-10T08:03:33.598Z,7.70
2019-02-10T08:06:44.506Z,7.80
2019-02-10T08:09:41.197Z,7.90
2019-02-10T08:12:55.693Z,8.00
2019-02-10T08:16:10.770Z,8.00
2019-02-10T08:19:13.698Z,8.00
2019-02-10T08:22:41.752Z,7.90
2019-02-10T08:25:39.134Z,7.90
2019-02-10T08:28:42.264Z,8.00
2019-02-10T08:32:01.542Z,8.10
2019-02-10T08:34:52.126Z,8.30
2019-02-10T08:38:01.026Z,8.50
2019-02-10T08:41:02.189Z,8.60
2019-02-10T08:43:52.567Z,8.70
2019-02-10T08:46:47.762Z,8.80
2019-02-10T08:49:54.037Z,8.90
2019-02-10T08:52:52.384Z,9.00
2019-02-10T08:55:21.410Z,9.10
2019-02-10T08:57:50.623Z,9.10
2019-02-10T09:00:19.594Z,9.20
2019-02-10T09:02:48.571Z,9.30
2019-02-10T09:05:17.582Z,9.30
2019-02-10T09:07:46.763Z,9.30
2019-02-10T09:10:17.275Z,9.30
2019-02-10T09:12:46.261Z,9.40
2019-02-10T09:15:17.012Z,9.50
2019-02-10T09:17:45.895Z,9.50
2019-02-10T09:20:15.122Z,9.50
2019-02-10T09:22:44.214Z,9.60
2019-02-10T09:25:13.323Z,9.70
2019-02-10T09:27:42.305Z,9.70
2019-02-10T09:30:12.086Z,9.80
2019-02-10T09:32:41.031Z,9.80
2019-02-10T09:35:10.131Z,9.90
2019-02-10T09:37:39.081Z,10.00
2019-02-10T09:40:09.087Z,10.10
2019-02-10T09:42:38.132Z,10.20
2019-02-10T09:45:10.101Z,10.20
2019-02-10T09:47:39.045Z,10.20
2019-02-10T09:50:11.274Z,10.30
2019-02-10T09:52:40.665Z,10.30
2019-02-10T09:55:09.626Z,10.40
2019-02-10T09:57:38.617Z,10.50
2019-02-10T10:00:10.559Z,10.60
2019-02-10T10:02:39.509Z,10.80
2019-02-10T10:05:10.295Z,10.90
2019-02-10T10:07:39.335Z,11.10
2019-02-10T10:10:11.131Z,11.10
2019-02-10T10:12:59.254Z,11.20
2019-02-10T10:15:28.140Z,11.10
2019-02-10T10:17:57.027Z,11.10
2019-02-10T10:20:26.262Z,11.00
2019-02-10T10:22:55.195Z,11.10
2019-02-10T10:25:24.170Z,11.10
2019-02-10T10:27:53.032Z,11.20
2019-02-10T10:30:22.066Z,11.30
2019-02-10T10:32:50.997Z,11.40
2019-02-10T10:35:19.997Z,11.40
2019-02-10T10:37:48.886Z,11.50
2019-02-10T10:40:18.014Z,11.70
2019-02-10T10:42:47.764Z,11.80
2019-02-10T10:45:17.077Z,12.00
2019-02-10T10:47:45.933Z,12.20
2019-02-10T10:50:15.181Z,12.50
2019-02-10T10:52:44.178Z,12.80
2019-02-10T10:55:13.231Z,13.00
2019-02-10T10:57:42.228Z,13.10
2019-02-10T11:00:11.861Z,13.20
2019-02-10T11:02:41.167Z,13.60
2019-02-10T11:05:10.483Z,13.90
2019-02-10T11:07:39.510Z,13.70
2019-02-10T11:10:08.899Z,13.70
2019-02-10T11:12:37.729Z,13.50
2019-02-10T11:15:07.973Z,13.70
2019-02-10T11:17:36.898Z,14.10
2019-02-10T11:20:06.720Z,14.30
2019-02-10T11:22:35.561Z,14.70
2019-02-10T11:25:04.993Z,15.00
2019-02-10T11:27:33.918Z,14.90
2019-02-10T11:30:03.994Z,14.90
2019-02-10T11:32:33.002Z,15.20
2019-02-10T11:35:01.900Z,15.50
2019-02-10T11:37:31.154Z,15.60
2019-02-10T11:40:00.089Z,16.00
2019-02-10T11:42:28.934Z,16.00
2019-02-10T11:44:57.899Z,16.50
2019-02-10T11:47:26.883Z,16.80
2019-02-10T11:49:55.805Z,17.10
2019-02-10T11:52:24.721Z,17.30
2019-02-10T11:54:53.569Z,17.30
2019-02-10T11:57:22.714Z,17.10
2019-02-10T11:59:51.998Z,17.30
2019-02-10T12:02:21.202Z,17.60
2019-02-10T12:04:50.054Z,17.10
2019-02-10T12:07:18.909Z,16.60
2019-02-10T12:09:51.656Z,16.20
2019-02-10T12:12:18.365Z,15.70
2019-02-10T12:14:47.298Z,15.40
2019-02-10T12:17:16.175Z,15.30
2019-02-10T12:19:45.030Z,15.20
2019-02-10T12:22:13.950Z,15.10
2019-02-10T12:24:42.806Z,15.00
2019-02-10T12:27:11.650Z,15.10
2019-02-10T12:29:40.536Z,15.10
2019-02-10T12:32:09.470Z,15.00
2019-02-10T12:34:38.447Z,15.20
2019-02-10T12:37:07.710Z,15.20
2019-02-10T12:39:36.593Z,15.20
2019-02-10T12:42:05.778Z,15.10
2019-02-10T12:44:34.618Z,15.10
2019-02-10T12:47:03.758Z,15.10
2019-02-10T12:49:32.593Z,15.30
2019-02-10T12:52:01.528Z,15.40
2019-02-10T12:54:30.721Z,15.40
2019-02-10T12:56:59.570Z,15.30
2019-02-10T12:59:28.486Z,15.40
2019-02-10T13:01:57.349Z,15.60
2019-02-10T13:04:26.623Z,15.60
2019-02-10T13:06:55.550Z,15.80
2019-02-10T13:09:24.394Z,16.00
2019-02-10T13:11:58.284Z,16.20
2019-02-10T13:14:23.985Z,16.50
2019-02-10T13:16:52.849Z,16.60
2019-02-10T13:19:22.042Z,16.80
2019-02-10T13:21:50.957Z,17.20
2019-02-10T13:24:19.801Z,17.30
2019-02-10T13:26:48.853Z,17.40
2019-02-10T13:29:17.827Z,17.30
2019-02-10T13:31:47.231Z,17.00
2019-02-10T13:34:16.201Z,16.50
2019-02-10T13:36:45.315Z,16.50
2019-02-10T13:39:14.776Z,16.50
2019-02-10T13:41:42.284Z,16.50
2019-02-10T13:44:11.236Z,16.60
2019-02-10T13:46:40.338Z,16.90
2019-02-10T13:49:09.309Z,17.10
2019-02-10T13:51:38.390Z,17.00
2019-02-10T13:54:07.225Z,17.30
2019-02-10T13:56:36.718Z,17.70
2019-02-10T13:59:05.766Z,17.90
2019-02-10T14:01:34.786Z,17.80
2019-02-10T14:04:03.790Z,17.60
2019-02-10T14:06:32.654Z,17.40
2019-02-10T14:09:01.846Z,17.30
2019-02-10T14:11:30.682Z,17.20
2019-02-10T14:13:59.838Z,17.10
2019-02-10T14:16:28.682Z,17.10
2019-02-10T14:18:57.858Z,16.90
2019-02-10T14:21:26.849Z,16.90
2019-02-10T14:23:55.785Z,16.60
2019-02-10T14:26:25.398Z,16.50
2019-02-10T14:28:54.367Z,16.40
2019-02-10T14:31:23.247Z,16.20
2019-02-10T14:33:52.094Z,16.10
2019-02-10T14:36:21.444Z,16.00
2019-02-10T14:38:50.385Z,16.00
2019-02-10T14:41:19.302Z,16.00
2019-02-10T14:43:48.495Z,15.90
2019-02-10T14:46:17.351Z,15.70
2019-02-10T14:48:46.523Z,15.70
2019-02-10T14:51:15.366Z,15.60
2019-02-10T14:53:44.290Z,15.70
2019-02-10T14:56:13.134Z,15.60
2019-02-10T14:58:43.356Z,15.60
2019-02-10T15:01:12.521Z,15.60
2019-02-10T15:03:41.703Z,15.50
2019-02-10T15:06:10.815Z,15.40
2019-02-10T15:08:40.076Z,15.30
2019-02-10T15:11:08.940Z,15.10
2019-02-10T15:13:37.787Z,15.00
2019-02-10T15:16:07.059Z,14.90
2019-02-10T15:18:35.989Z,14.80
2019-02-10T15:21:04.903Z,14.70
2019-02-10T15:23:33.817Z,14.60
2019-02-10T15:26:02.955Z,14.50
2019-02-10T15:28:31.809Z,14.30
2019-02-10T15:31:00.684Z,14.10
2019-02-10T15:33:29.592Z,14.10
2019-02-10T15:35:58.428Z,14.10
2019-02-10T15:38:27.332Z,14.00
2019-02-10T15:40:56.178Z,13.90
2019-02-10T15:43:25.029Z,13.90
2019-02-10T15:45:53.958Z,14.00
2019-02-10T15:48:22.909Z,13.90
2019-02-10T15:50:51.869Z,13.90
2019-02-10T15:53:20.714Z,14.00
2019-02-10T15:55:49.921Z,14.00
2019-02-10T15:58:18.825Z,13.90
2019-02-10T16:00:47.780Z,13.80
2019-02-10T16:03:16.686Z,13.90
2019-02-10T16:05:45.553Z,13.80
2019-02-10T16:08:14.474Z,13.70
2019-02-10T16:10:43.436Z,13.60
2019-02-10T16:13:12.293Z,13.60
2019-02-10T16:16:00.383Z,13.50
2019-02-10T16:18:29.320Z,13.50
2019-02-10T16:20:58.158Z,13.40
2019-02-10T16:23:27.064Z,13.40
2019-02-10T16:25:55.948Z,13.40
2019-02-10T16:28:24.791Z,13.40
2019-02-10T16:30:53.765Z,13.20
2019-02-10T16:33:22.732Z,13.20
2019-02-10T16:35:51.590Z,13.20
2019-02-10T16:38:20.446Z,13.10
2019-02-10T16:40:49.340Z,13.00
2019-02-10T16:43:18.317Z,12.90
2019-02-10T16:45:47.182Z,12.90
2019-02-10T16:48:16.117Z,12.80
2019-02-10T16:50:45.040Z,12.70
2019-02-10T16:53:13.991Z,12.60
2019-02-10T16:55:42.953Z,12.60
2019-02-10T16:58:11.859Z,12.50
2019-02-10T17:00:40.954Z,12.50
2019-02-10T17:03:09.796Z,12.40
2019-02-10T17:05:39.893Z,12.30
2019-02-10T17:08:08.970Z,12.30
2019-02-10T17:10:37.862Z,12.20
2019-02-10T17:13:06.827Z,12.10
2019-02-10T17:15:35.754Z,12.20
2019-02-10T17:18:04.734Z,12.10
2019-02-10T17:20:33.662Z,12.10
2019-02-10T17:23:02.871Z,12.10
2019-02-10T17:25:31.802Z,11.90
2019-02-10T17:28:00.719Z,11.90
2019-02-10T17:30:29.577Z,11.70
2019-02-10T17:32:58.428Z,11.60
2019-02-10T17:35:27.316Z,11.70
2019-02-10T17:37:56.311Z,11.60
2019-02-10T17:40:32.785Z,11.50
2019-02-10T17:43:03.025Z,11.50
2019-02-10T17:45:32.278Z,11.40
2019-02-10T17:48:01.151Z,11.40
2019-02-10T17:50:30.078Z,11.30
2019-02-10T17:52:59.259Z,11.20
2019-02-10T17:55:28.182Z,11.10
2019-02-10T17:57:57.411Z,11.00
2019-02-10T18:00:30.334Z,10.40
2019-02-10T18:02:59.163Z,9.90
2019-02-10T18:05:28.086Z,9.40
2019-02-10T18:07:56.994Z,9.00
2019-02-10T18:10:25.887Z,8.80
2019-02-10T18:12:55.110Z,8.60
2019-02-10T18:15:43.023Z,8.30
2019-02-10T18:18:34.250Z,8.20
2019-02-10T18:21:19.913Z,8.10
2019-02-10T18:24:14.078Z,7.90
2019-02-10T18:26:53.419Z,7.50
2019-02-10T18:29:36.632Z,7.20
2019-02-10T18:32:21.580Z,7.00
2019-02-10T18:35:10.012Z,6.90
2019-02-10T18:37:46.303Z,6.90
2019-02-10T18:40:24.890Z,6.90
2019-02-10T18:43:25.111Z,6.90
2019-02-10T18:46:22.064Z,6.70
2019-02-10T18:49:10.036Z,6.60
2019-02-10T18:51:51.553Z,6.50
2019-02-10T18:54:42.725Z,6.40
2019-02-10T18:57:30.680Z,6.40
2019-02-10T19:00:15.747Z,6.30
2019-02-10T19:02:56.749Z,6.30
2019-02-10T19:05:53.871Z,6.20
2019-02-10T19:08:30.454Z,6.20
2019-02-10T19:11:08.105Z,6.30
2019-02-10T19:13:58.969Z,6.30
2019-02-10T19:16:53.494Z,6.20
2019-02-10T19:20:00.019Z,6.30
2019-02-10T19:22:51.019Z,6.20
2019-02-10T19:25:34.963Z,6.10
2019-02-10T19:28:20.891Z,6.10
2019-02-10T19:31:07.808Z,6.00
2019-02-10T19:33:44.152Z,6.10
2019-02-10T19:36:32.525Z,6.10
2019-02-10T19:39:22.880Z,6.20
2019-02-10T19:42:04.922Z,6.20
2019-02-10T19:44:51.734Z,6.10
2019-02-10T19:47:33.723Z,6.20
2019-02-10T19:50:08.965Z,6.10
2019-02-10T19:52:55.703Z,6.10
2019-02-10T19:55:33.997Z,6.20
2019-02-10T19:58:21.955Z,6.20
2019-02-10T20:01:25.122Z,6.20
2019-02-10T20:04:25.647Z,6.30
2019-02-10T20:07:19.494Z,6.20
2019-02-10T20:10:10.170Z,6.20
2019-02-10T20:12:50.773Z,6.20
2019-02-10T20:15:24.942Z,6.20
2019-02-10T20:18:13.280Z,6.10
2019-02-10T20:21:04.141Z,6.00
2019-02-10T20:23:55.315Z,6.00
2019-02-10T20:26:34.359Z,6.00
2019-02-10T20:29:21.086Z,6.00
2019-02-10T20:32:12.421Z,6.00
2019-02-10T20:34:59.037Z,6.00
2019-02-10T20:37:47.206Z,5.80
2019-02-10T20:40:39.146Z,6.00
2019-02-10T20:43:27.485Z,5.90
2019-02-10T20:46:15.954Z,5.90
2019-02-10T20:49:15.885Z,5.70
2019-02-10T20:52:19.020Z,5.80
2019-02-10T20:55:07.005Z,5.80
2019-02-10T20:57:53.964Z,5.80
2019-02-10T21:00:38.292Z,5.80
2019-02-10T21:03:23.110Z,5.70
2019-02-10T21:06:10.089Z,5.60
2019-02-10T21:08:49.745Z,5.50
2019-02-10T21:11:56.394Z,5.50
2019-02-10T21:14:46.993Z,5.50
2019-02-10T21:17:29.534Z,5.50
2019-02-10T21:20:16.758Z,5.50
2019-02-10T21:23:04.780Z,5.50
2019-02-10T21:25:41.000Z,5.40
2019-02-10T21:28:19.457Z,5.40
2019-02-10T21:31:13.790Z,5.40
2019-02-10T21:34:04.765Z,5.40
2019-02-10T21:36:48.618Z,5.40
2019-02-10T21:39:39.726Z,5.30
2019-02-10T21:42:17.407Z,5.30
2019-02-10T21:45:05.437Z,5.30
2019-02-10T21:47:38.130Z,5.30
2019-02-10T21:50:07.245Z,5.30
2019-02-10T21:52:36.202Z,5.30
2019-02-10T21:55:05.518Z,5.30
2019-02-10T21:57:34.590Z,5.30
2019-02-10T22:00:03.531Z,5.20
2019-02-10T22:02:32.390Z,5.20
2019-02-10T22:05:01.226Z,5.00
2019-02-10T22:07:30.151Z,5.00
2019-02-10T22:09:58.980Z,5.10
2019-02-10T22:12:27.910Z,5.20
2019-02-10T22:14:56.746Z,5.10
2019-02-10T22:17:25.602Z,5.10
2019-02-10T22:19:54.828Z,5.20
2019-02-10T22:22:23.686Z,5.20
2019-02-10T22:24:52.598Z,5.30
2019-02-10T22:27:21.530Z,5.30
2019-02-10T22:29:50.417Z,5.30
2019-02-10T22:32:19.790Z,5.30
2019-02-10T22:34:48.737Z,5.30
2019-02-10T22:37:17.741Z,5.30
2019-02-10T22:39:46.703Z,5.30
2019-02-10T22:42:15.634Z,5.30
2019-02-10T22:44:44.614Z,5.30
2019-02-10T22:47:13.544Z,5.30
2019-02-10T22:49:42.425Z,5.40
2019-02-10T22:52:11.305Z,5.40
2019-02-10T22:54:40.175Z,5.40
2019-02-10T22:57:09.174Z,5.30
2019-02-10T22:59:38.011Z,5.30
2019-02-10T23:02:07.025Z,5.30
2019-02-10T23:04:35.990Z,5.30
2019-02-10T23:07:05.186Z,5.30
2019-02-10T23:09:34.122Z,5.30
2019-02-10T23:12:03.244Z,5.30
2019-02-10T23:14:32.289Z,5.30
2019-02-10T23:17:01.295Z,5.30
2019-02-10T23:19:30.168Z,5.30
2019-02-10T23:21:59.033Z,5.30
2019-02-10T23:24:27.999Z,5.30
2019-02-10T23:26:56.981Z,5.30
2019-02-10T23:29:25.903Z,5.30
2019-02-10T23:31:54.737Z,5.20
2019-02-10T23:34:23.593Z,5.20
2019-02-10T23:36:54.625Z,5.20
2019-02-10T23:39:23.589Z,5.20
2019-02-10T23:41:52.432Z,5.30
2019-02-10T23:44:21.294Z,5.30
2019-02-10T23:46:50.137Z,5.30
2019-02-10T23:49:19.065Z,5.20
2019-02-10T23:51:48.029Z,5.20
2019-02-10T23:54:16.890Z,5.20
2019-02-10T23:56:47.273Z,5.20
2019-02-10T23:59:16.452Z,5.30
